createdAt,value
2022-10-14T10:58:37.797Z,100943.03
2022-10-14T11:04:03.237Z,100931.69
2022-10-14T11:09:36.471Z,100934.38
2022-10-14T11:15:10.172Z,100927.59
2022-10-14T11:20:30.582Z,100928.91
2022-10-14T11:25:49.642Z,100938.88
2022-10-14T11:31:07.932Z,100927.53
2022-10-14T11:36:29.090Z,100922.97
2022-10-14T11:41:59.389Z,100912.56
2022-10-14T11:47:13.952Z,100908.72
2022-10-14T11:52:27.489Z,100898.31
2022-10-14T11:57:38.519Z,100900.63
2022-10-14T12:02:54.493Z,100888.97
2022-10-14T12:08:11.615Z,100882.88
2022-10-14T12:13:23.243Z,100883.47
2022-10-14T12:18:33.155Z,100883.31
2022-10-14T12:23:45.231Z,100873.41
2022-10-14T12:28:54.029Z,100866.41
2022-10-14T12:34:35.011Z,100871.72
2022-10-14T12:39:44.916Z,100872.72
2022-10-14T12:44:56.424Z,100858.53
2022-10-14T12:50:23.825Z,100859.22
2022-10-14T12:55:35.179Z,100854.13
2022-10-14T13:00:44.691Z,100859.22
2022-10-14T13:05:52.671Z,100854.72
2022-10-14T13:11:14.876Z,100854.47
2022-10-14T13:17:28.995Z,100855.22
2022-10-14T13:22:41.686Z,100860.53
2022-10-14T13:28:23.235Z,100850.31
2022-10-14T13:33:39.891Z,100855.66
2022-10-14T13:38:56.852Z,100851.34
2022-10-14T13:44:04.114Z,100852.31
2022-10-14T13:54:31.464Z,100849.44
2022-10-14T13:59:43.945Z,100843.09
2022-10-14T14:05:17.026Z,100847.50
2022-10-14T14:10:26.759Z,100842.19
2022-10-14T14:15:32.918Z,100841.44
2022-10-14T14:20:38.871Z,100834.56
2022-10-14T14:26:17.841Z,100839.81
2022-10-14T14:31:20.903Z,100826.69
2022-10-14T14:36:50.143Z,100831.22
2022-10-14T14:42:01.161Z,100833.06
2022-10-14T14:47:07.656Z,100828.84
2022-10-14T14:52:15.526Z,100824.59
2022-10-14T14:57:24.345Z,100827.31
2022-10-14T15:02:34.554Z,100820.41
2022-10-14T15:07:45.114Z,100825.72
2022-10-14T15:12:57.348Z,100815.38
2022-10-14T15:18:21.489Z,100812.09
2022-10-14T15:23:42.026Z,100808.75
2022-10-14T15:29:03.481Z,100809.81
2022-10-14T15:34:20.922Z,100812.63
2022-10-14T15:39:27.028Z,100813.72
2022-10-14T15:44:35.436Z,100812.13
2022-10-14T15:49:43.991Z,100808.75
2022-10-14T15:54:51.098Z,100810.69
2022-10-14T15:59:58.877Z,100814.38
2022-10-14T16:05:21.089Z,100818.03
2022-10-14T16:10:32.050Z,100820.91
2022-10-14T16:15:50.069Z,100821.16
2022-10-14T16:20:57.569Z,100815.28
2022-10-14T16:26:06.060Z,100820.63
2022-10-14T16:31:16.121Z,100819.84
2022-10-14T16:36:23.583Z,100819.91
2022-10-14T16:41:31.177Z,100819.06
2022-10-14T16:46:56.303Z,100820.84
2022-10-14T16:52:02.445Z,100818.25
2022-10-14T16:57:09.520Z,100818.38
2022-10-14T17:02:18.476Z,100823.59
2022-10-14T17:07:24.811Z,100824.53
2022-10-14T17:12:31.091Z,100828.06
2022-10-14T17:17:40.380Z,100828.09
2022-10-14T17:22:46.558Z,100834.38
2022-10-14T17:27:52.631Z,100828.41
2022-10-14T17:33:00.287Z,100831.09
2022-10-14T17:38:07.612Z,100821.69
2022-10-14T17:43:13.700Z,100827.91
2022-10-14T17:48:21.052Z,100820.97
2022-10-14T17:53:28.117Z,100820.25
2022-10-14T17:58:34.370Z,100814.31
2022-10-14T18:03:45.266Z,100812.69
2022-10-14T18:08:54.945Z,100824.94
2022-10-14T18:14:04.770Z,100811.16
2022-10-14T18:19:17.246Z,100815.66
2022-10-14T18:24:24.120Z,100810.50
2022-10-14T18:29:30.415Z,100810.59
2022-10-14T18:34:38.620Z,100801.19
2022-10-14T18:39:46.198Z,100808.25
2022-10-14T18:44:52.967Z,100809.25
2022-10-14T18:50:00.564Z,100804.16
2022-10-14T18:55:07.964Z,100806.19
2022-10-14T19:00:17.794Z,100802.22
2022-10-14T19:05:29.614Z,100818.94
2022-10-14T19:10:39.087Z,100812.81
2022-10-14T19:15:51.401Z,100814.81
2022-10-14T19:21:09.628Z,100813.53
2022-10-14T19:26:19.718Z,100810.13
2022-10-14T19:31:29.595Z,100811.22
2022-10-14T19:36:40.619Z,100808.63
2022-10-14T19:41:47.872Z,100814.81
2022-10-14T19:46:54.693Z,100808.09
2022-10-14T19:52:02.780Z,100804.81
2022-10-14T19:57:09.146Z,100802.25
2022-10-14T20:02:15.203Z,100800.25
2022-10-14T20:07:23.251Z,100800.88
2022-10-14T20:12:29.898Z,100796.94
2022-10-14T20:17:36.158Z,100804.69
2022-10-14T20:22:43.707Z,100790.53
2022-10-14T20:27:50.961Z,100790.44
2022-10-14T20:32:57.364Z,100786.34
2022-10-14T20:38:05.886Z,100790.53
2022-10-14T20:43:14.178Z,100793.72
2022-10-14T20:48:20.668Z,100786.47
2022-10-14T20:53:29.175Z,100778.66
2022-10-14T20:58:35.443Z,100778.81
2022-10-14T21:03:43.252Z,100776.25
2022-10-14T21:08:52.686Z,100783.13
2022-10-14T21:20:11.945Z,100768.34
2022-10-14T21:25:19.857Z,100769.22
2022-10-14T21:30:26.318Z,100769.13
2022-10-14T21:35:32.764Z,100760.84
2022-10-14T21:40:40.578Z,100755.06
2022-10-14T21:45:46.951Z,100761.66
2022-10-14T21:51:04.463Z,100757.06
2022-10-14T21:56:15.990Z,100749.31
2022-10-14T22:01:26.393Z,100751.06
2022-10-14T22:06:34.278Z,100753.44
2022-10-14T22:11:43.378Z,100749.13
2022-10-14T22:16:50.294Z,100750.19
2022-10-14T22:21:59.477Z,100743.91
2022-10-14T22:27:07.499Z,100745.88
2022-10-14T22:32:16.310Z,100735.28
2022-10-14T22:37:22.865Z,100743.03
2022-10-14T22:42:32.186Z,100750.06
2022-10-14T22:47:38.418Z,100748.72
2022-10-14T22:52:44.632Z,100753.94
2022-10-14T22:57:52.906Z,100753.19
2022-10-14T23:02:59.195Z,100755.28
2022-10-14T23:08:10.057Z,100759.44
2022-10-14T23:13:17.746Z,100757.56
2022-10-14T23:18:24.214Z,100743.28
2022-10-14T23:23:30.586Z,100740.81
2022-10-14T23:28:38.712Z,100740.91
2022-10-14T23:33:45.310Z,100744.09
2022-10-14T23:38:53.133Z,100738.34
2022-10-14T23:44:00.938Z,100734.06
2022-10-14T23:49:21.214Z,100739.34
2022-10-14T23:54:31.366Z,100734.97
2022-10-14T23:59:40.016Z,100732.16
